Time;durP1;ratioP1;P1;durP2;ratioP2;P2;SDS_P1;SDS_P2;PMS_P1;PMS_P2;Temp;Humidity;BMP_temperature;BMP_pressure;BME280_temperature;BME280_humidity;BME280_pressure;Samples;Min_cycle;Max_cycle;Signal;HPM_P1;HPM_P2
2023/06/03 00:00:52;;;;;;;10.30;5.03;;;;;;;;;;5080593;28;20305;-79
2023/06/03 00:03:20;;;;;;;8.03;4.33;;;;;;;;;;5097381;28;20227;-79
2023/06/03 00:05:46;;;;;;;8.37;4.73;;;;;;;;;;5081372;28;20184;-79
2023/06/03 00:08:12;;;;;;;9.38;4.82;;;;;;;;;;5115317;28;20403;-79
2023/06/03 00:10:38;;;;;;;9.07;4.72;;;;;;;;;;5097167;28;20461;-79
2023/06/03 00:13:04;;;;;;;8.25;4.85;;;;;;;;;;5114836;28;20403;-82
2023/06/03 00:15:30;;;;;;;8.90;4.60;;;;;;;;;;5114989;28;20209;-82
2023/06/03 00:17:56;;;;;;;6.10;4.63;;;;;;;;;;5115151;28;20313;-82
2023/06/03 00:20:25;;;;;;;6.10;4.50;;;;;;;;;;5080252;28;20202;-82
2023/06/03 00:22:51;;;;;;;7.10;4.70;;;;;;;;;;5101419;28;20177;-82
2023/06/03 00:25:17;;;;;;;8.10;4.77;;;;;;;;;;5080622;28;20186;-82
2023/06/03 00:27:43;;;;;;;9.65;5.28;;;;;;;;;;5093436;28;20451;-82
2023/06/03 00:30:10;;;;;;;9.50;5.33;;;;;;;;;;5071655;28;20210;-83
2023/06/03 00:32:36;;;;;;;11.50;5.20;;;;;;;;;;5109911;28;20178;-83
2023/06/03 00:35:02;;;;;;;8.87;4.57;;;;;;;;;;5095933;28;20202;-83
2023/06/03 00:37:28;;;;;;;8.07;4.97;;;;;;;;;;5113758;28;20264;-82
2023/06/03 00:39:54;;;;;;;8.77;5.18;;;;;;;;;;5090899;28;20531;-82
2023/06/03 00:42:20;;;;;;;9.02;5.43;;;;;;;;;;5078802;28;20423;-82
2023/06/03 00:44:46;;;;;;;8.10;5.43;;;;;;;;;;5078749;28;20193;-79
2023/06/03 00:47:14;;;;;;;7.77;4.80;;;;;;;;;;5093170;28;20183;-79
2023/06/03 00:49:40;;;;;;;7.63;5.00;;;;;;;;;;5094370;28;20197;-79
2023/06/03 00:52:07;;;;;;;8.60;4.97;;;;;;;;;;5096708;28;20256;-79
2023/06/03 00:54:33;;;;;;;8.13;5.10;;;;;;;;;;5114608;28;20216;-79
2023/06/03 00:56:59;;;;;;;7.23;5.10;;;;;;;;;;5114830;28;20170;-79
2023/06/03 00:59:25;;;;;;;11.73;4.80;;;;;;;;;;5095672;28;20228;-79
2023/06/03 01:01:51;;;;;;;8.68;4.90;;;;;;;;;;5079209;28;20419;-79
2023/06/03 01:04:25;;;;;;;8.68;5.13;;;;;;;;;;5094878;28;20487;-79
2023/06/03 01:07:10;;;;;;;6.30;5.10;;;;;;;;;;5114180;28;20466;-79
2023/06/03 01:09:49;;;;;;;8.77;4.90;;;;;;;;;;5094608;28;20419;-79
2023/06/03 01:12:25;;;;;;;7.33;5.07;;;;;;;;;;5095152;28;20475;-79
2023/06/03 01:14:56;;;;;;;5.90;4.73;;;;;;;;;;5096229;28;20235;-79
2023/06/03 01:17:25;;;;;;;5.47;4.40;;;;;;;;;;5114902;28;20184;-92
2023/06/03 01:19:52;;;;;;;6.78;4.90;;;;;;;;;;5096340;28;20453;-82
2023/06/03 01:22:24;;;;;;;7.35;4.80;;;;;;;;;;5079756;28;20402;-82
2023/06/03 01:24:50;;;;;;;6.95;5.15;;;;;;;;;;5095754;28;20460;-82
2023/06/03 01:27:17;;;;;;;5.10;4.30;;;;;;;;;;5079582;28;20244;-82
2023/06/03 01:29:44;;;;;;;7.03;4.60;;;;;;;;;;5099646;28;20181;-82
2023/06/03 01:32:12;;;;;;;5.90;4.57;;;;;;;;;;5101285;28;20185;-83
2023/06/03 01:34:38;;;;;;;8.33;4.33;;;;;;;;;;5099784;28;20209;-82
2023/06/03 01:37:04;;;;;;;7.10;4.53;;;;;;;;;;5084440;28;20190;-92
2023/06/03 01:39:31;;;;;;;6.05;4.30;;;;;;;;;;5118652;28;20466;-92
2023/06/03 01:41:57;;;;;;;7.45;4.63;;;;;;;;;;5099964;28;20426;-92
2023/06/03 01:44:23;;;;;;;7.22;4.70;;;;;;;;;;5082740;28;20411;-92
2023/06/03 01:46:49;;;;;;;7.65;4.70;;;;;;;;;;5082618;28;20464;-93
2023/06/03 01:49:17;;;;;;;6.57;4.30;;;;;;;;;;5083163;28;20409;-92
2023/06/03 01:51:43;;;;;;;6.03;4.45;;;;;;;;;;5099757;28;20425;-83
2023/06/03 01:54:09;;;;;;;6.75;4.35;;;;;;;;;;5098816;28;20431;-82
2023/06/03 01:56:35;;;;;;;7.70;4.50;;;;;;;;;;5082788;28;20231;-83
2023/06/03 01:59:01;;;;;;;8.20;4.88;;;;;;;;;;5098821;28;20498;-82
2023/06/03 02:01:27;;;;;;;6.73;4.20;;;;;;;;;;5098832;28;20193;-83
2023/06/03 02:03:53;;;;;;;6.60;3.97;;;;;;;;;;5099910;28;20186;-83
2023/06/03 02:06:20;;;;;;;4.73;3.87;;;;;;;;;;5087299;28;20200;-83
2023/06/03 02:08:46;;;;;;;6.63;4.25;;;;;;;;;;5094356;28;20439;-82
2023/06/03 02:11:12;;;;;;;7.30;3.95;;;;;;;;;;5062289;28;20425;-82
2023/06/03 02:13:38;;;;;;;6.03;3.57;;;;;;;;;;5091846;28;20185;-82
2023/06/03 02:16:04;;;;;;;5.03;4.03;;;;;;;;;;5098473;28;20730;-82
2023/06/03 02:18:31;;;;;;;6.03;3.77;;;;;;;;;;5098859;28;20185;-82
2023/06/03 02:20:58;;;;;;;4.93;3.90;;;;;;;;;;5097704;28;20174;-82
2023/06/03 02:23:24;;;;;;;7.07;3.80;;;;;;;;;;5098382;28;20174;-82
2023/06/03 02:25:50;;;;;;;4.93;3.60;;;;;;;;;;5098873;28;20419;-91
2023/06/03 02:28:16;;;;;;;5.53;3.78;;;;;;;;;;5082313;28;20411;-91
2023/06/03 02:30:42;;;;;;;6.50;3.95;;;;;;;;;;5103603;28;20499;-91
2023/06/03 02:33:08;;;;;;;5.50;3.30;;;;;;;;;;5099059;28;20268;-92
2023/06/03 02:35:35;;;;;;;5.27;3.23;;;;;;;;;;5082610;28;20304;-92
2023/06/03 02:38:01;;;;;;;9.07;4.07;;;;;;;;;;5082982;28;20188;-91
2023/06/03 02:40:27;;;;;;;7.68;3.53;;;;;;;;;;5093610;28;20431;-92
2023/06/03 02:42:53;;;;;;;5.22;3.60;;;;;;;;;;5095421;28;20388;-78
2023/06/03 02:45:19;;;;;;;6.20;3.63;;;;;;;;;;5094676;28;20396;-78
2023/06/03 02:47:45;;;;;;;5.83;3.83;;;;;;;;;;5078703;28;20190;-78
2023/06/03 02:50:11;;;;;;;6.40;3.37;;;;;;;;;;5095735;28;20174;-78
2023/06/03 02:52:37;;;;;;;4.83;3.10;;;;;;;;;;5096762;28;20234;-78
2023/06/03 02:55:03;;;;;;;6.43;3.50;;;;;;;;;;5096562;28;20293;-79
2023/06/03 02:57:29;;;;;;;4.78;3.50;;;;;;;;;;5077698;28;20412;-79
2023/06/03 02:59:56;;;;;;;5.00;2.93;;;;;;;;;;5078257;28;20210;-83
2023/06/03 03:02:24;;;;;;;5.30;3.10;;;;;;;;;;5078607;28;20178;-83
2023/06/03 03:04:50;;;;;;;4.20;3.17;;;;;;;;;;5095726;28;20190;-83
2023/06/03 03:07:17;;;;;;;7.07;3.20;;;;;;;;;;5078238;28;20466;-82
2023/06/03 03:09:43;;;;;;;4.03;2.97;;;;;;;;;;5078495;28;20232;-83
2023/06/03 03:12:09;;;;;;;4.03;2.80;;;;;;;;;;5078177;28;20174;-83
2023/06/03 03:14:35;;;;;;;5.63;2.80;;;;;;;;;;5096193;28;20275;-83
2023/06/03 03:17:02;;;;;;;6.65;3.45;;;;;;;;;;5078454;28;20405;-83
2023/06/03 03:19:28;;;;;;;4.88;3.20;;;;;;;;;;5077396;28;20487;-83
2023/06/03 03:21:54;;;;;;;7.23;3.17;;;;;;;;;;5078538;28;20179;-83
2023/06/03 03:24:22;;;;;;;5.93;3.43;;;;;;;;;;5077860;28;20465;-83
2023/06/03 03:26:48;;;;;;;4.97;3.20;;;;;;;;;;5078569;28;20527;-83
2023/06/03 03:29:14;;;;;;;4.37;3.17;;;;;;;;;;5078158;28;20269;-83
2023/06/03 03:31:40;;;;;;;3.37;2.80;;;;;;;;;;5078008;28;20187;-82
2023/06/03 03:34:07;;;;;;;5.03;3.00;;;;;;;;;;5094606;28;20215;-83
2023/06/03 03:36:36;;;;;;;5.53;2.63;;;;;;;;;;5094690;28;20261;-84
2023/06/03 03:39:03;;;;;;;3.90;2.73;;;;;;;;;;5078331;28;20174;-83
2023/06/03 03:41:30;;;;;;;5.20;3.03;;;;;;;;;;5108838;28;20174;-83
2023/06/03 03:43:56;;;;;;;5.25;2.85;;;;;;;;;;5097727;28;20496;-82
2023/06/03 03:46:22;;;;;;;4.73;3.00;;;;;;;;;;5115751;28;20216;-83
2023/06/03 03:48:48;;;;;;;4.83;2.83;;;;;;;;;;5097821;28;20185;-82
2023/06/03 03:51:15;;;;;;;6.70;2.70;;;;;;;;;;5114528;28;20201;-82
2023/06/03 03:53:45;;;;;;;4.57;2.67;;;;;;;;;;5097195;28;20178;-82
2023/06/03 03:56:12;;;;;;;6.53;2.73;;;;;;;;;;5079126;28;20182;-82
2023/06/03 03:58:40;;;;;;;4.47;2.70;;;;;;;;;;5089863;28;20174;-81
2023/06/03 04:01:12;;;;;;;3.38;2.90;;;;;;;;;;5114944;28;20419;-81
2023/06/03 04:03:42;;;;;;;6.20;2.57;;;;;;;;;;5097796;28;20173;-82
2023/06/03 04:06:09;;;;;;;7.27;2.73;;;;;;;;;;5097356;28;20201;-82
2023/06/03 04:08:47;;;;;;;3.50;2.50;;;;;;;;;;5097212;28;20451;-81
2023/06/03 04:11:20;;;;;;;3.53;2.67;;;;;;;;;;5093214;28;20171;-82
2023/06/03 04:13:46;;;;;;;4.27;2.60;;;;;;;;;;5076948;28;20175;-82
2023/06/03 04:16:20;;;;;;;3.50;2.53;;;;;;;;;;5095061;28;20171;-81
2023/06/03 04:18:46;;;;;;;5.47;3.13;;;;;;;;;;5077012;28;20277;-81
2023/06/03 04:21:16;;;;;;;4.90;2.47;;;;;;;;;;5094973;28;20253;-82
2023/06/03 04:23:42;;;;;;;5.80;2.83;;;;;;;;;;5091307;28;20179;-78
2023/06/03 04:26:09;;;;;;;6.22;2.70;;;;;;;;;;5076008;28;20405;-78
2023/06/03 04:28:35;;;;;;;4.10;2.63;;;;;;;;;;5076830;28;20178;-78
2023/06/03 04:31:01;;;;;;;4.53;2.63;;;;;;;;;;5071469;28;20170;-78
2023/06/03 04:33:27;;;;;;;6.17;2.67;;;;;;;;;;5114591;28;20242;-78
2023/06/03 04:35:53;;;;;;;4.23;2.50;;;;;;;;;;5097299;28;20263;-78
2023/06/03 04:38:19;;;;;;;3.53;2.70;;;;;;;;;;5096664;28;20408;-78
2023/06/03 04:40:46;;;;;;;4.97;2.50;;;;;;;;;;5115065;28;20174;-79
2023/06/03 04:43:14;;;;;;;3.60;2.27;;;;;;;;;;5114793;28;20219;-79
2023/06/03 04:45:40;;;;;;;5.60;2.45;;;;;;;;;;5096395;28;20404;-78
2023/06/03 04:48:07;;;;;;;5.82;2.60;;;;;;;;;;5079640;28;20422;-79
2023/06/03 04:50:35;;;;;;;3.90;2.70;;;;;;;;;;5096285;28;20448;-78
2023/06/03 04:53:02;;;;;;;5.45;2.80;;;;;;;;;;5079347;28;20410;-78
2023/06/03 04:55:28;;;;;;;3.80;2.27;;;;;;;;;;5096708;28;20212;-81
2023/06/03 04:57:54;;;;;;;3.03;2.60;;;;;;;;;;5080480;28;20195;-82
2023/06/03 05:00:21;;;;;;;5.03;2.40;;;;;;;;;;5079461;28;20431;-82
2023/06/03 05:02:55;;;;;;;4.75;2.58;;;;;;;;;;5087111;28;20435;-82
2023/06/03 05:05:25;;;;;;;4.68;2.38;;;;;;;;;;5079893;28;20431;-81
2023/06/03 05:07:51;;;;;;;4.65;2.70;;;;;;;;;;5107974;28;20427;-82
2023/06/03 05:10:17;;;;;;;3.95;2.30;;;;;;;;;;5113735;28;20422;-82
2023/06/03 05:12:45;;;;;;;4.03;2.50;;;;;;;;;;5113029;28;20419;-82
2023/06/03 05:15:11;;;;;;;4.50;2.55;;;;;;;;;;5113079;28;20467;-83
2023/06/03 05:17:40;;;;;;;6.00;2.58;;;;;;;;;;5113524;28;20387;-83
2023/06/03 05:20:10;;;;;;;5.18;2.53;;;;;;;;;;5095719;28;20430;-83
2023/06/03 05:22:36;;;;;;;4.13;2.65;;;;;;;;;;5095484;28;20410;-84
2023/06/03 05:25:05;;;;;;;5.30;2.50;;;;;;;;;;5076964;28;20434;-84
2023/06/03 05:27:31;;;;;;;4.90;2.50;;;;;;;;;;5063689;28;20466;-81
2023/06/03 05:29:57;;;;;;;4.55;2.55;;;;;;;;;;5088738;28;20395;-77
2023/06/03 05:32:24;;;;;;;4.28;2.45;;;;;;;;;;5095787;28;20412;-77
2023/06/03 05:34:50;;;;;;;3.42;2.30;;;;;;;;;;5079077;28;20437;-77
2023/06/03 05:37:16;;;;;;;6.57;2.77;;;;;;;;;;5075766;28;20409;-77
2023/06/03 05:39:42;;;;;;;4.57;2.20;;;;;;;;;;5092412;28;20198;-77
2023/06/03 05:42:08;;;;;;;4.97;2.00;;;;;;;;;;5096112;28;20185;-77
2023/06/03 05:44:34;;;;;;;4.53;2.70;;;;;;;;;;5075917;28;20179;-77
2023/06/03 05:47:00;;;;;;;4.73;2.27;;;;;;;;;;5076075;28;20183;-77
2023/06/03 05:49:26;;;;;;;3.07;2.23;;;;;;;;;;5075923;28;20187;-77
2023/06/03 05:51:52;;;;;;;3.08;2.20;;;;;;;;;;5075702;28;20412;-77
2023/06/03 05:54:18;;;;;;;2.93;2.07;;;;;;;;;;5075620;28;20206;-77
2023/06/03 05:56:44;;;;;;;3.97;2.20;;;;;;;;;;5075839;28;20171;-77
2023/06/03 05:59:10;;;;;;;3.50;2.10;;;;;;;;;;5075639;28;20182;-77
2023/06/03 06:01:36;;;;;;;5.07;2.30;;;;;;;;;;5076039;28;20227;-91
2023/06/03 06:04:02;;;;;;;4.17;2.30;;;;;;;;;;5076140;28;20182;-91
2023/06/03 06:06:28;;;;;;;7.37;2.27;;;;;;;;;;5076158;28;20185;-91
2023/06/03 06:08:54;;;;;;;3.10;2.30;;;;;;;;;;5076398;28;20178;-91
2023/06/03 06:11:20;;;;;;;2.73;2.27;;;;;;;;;;5076871;28;20178;-92
2023/06/03 06:13:46;;;;;;;3.03;2.03;;;;;;;;;;5085618;22;20225;-79
2023/06/03 06:16:13;;;;;;;6.70;2.30;;;;;;;;;;5082311;28;20185;-78
2023/06/03 06:18:39;;;;;;;4.77;1.90;;;;;;;;;;5078755;28;20231;-82
2023/06/03 06:21:05;;;;;;;5.20;2.23;;;;;;;;;;5079086;28;20186;-82
2023/06/03 06:23:31;;;;;;;3.67;2.17;;;;;;;;;;5098911;28;20186;-82
2023/06/03 06:25:57;;;;;;;2.40;2.10;;;;;;;;;;5081866;28;20208;-82
2023/06/03 06:28:26;;;;;;;2.87;2.10;;;;;;;;;;5080940;28;20239;-82
2023/06/03 06:30:56;;;;;;;4.27;2.10;;;;;;;;;;5083783;28;20182;-82
2023/06/03 06:33:22;;;;;;;4.90;1.90;;;;;;;;;;5100407;28;20186;-82
2023/06/03 06:35:48;;;;;;;3.33;1.90;;;;;;;;;;5099266;28;20205;-78
2023/06/03 06:38:15;;;;;;;4.67;2.07;;;;;;;;;;5080688;28;20242;-78
2023/06/03 06:40:42;;;;;;;3.90;2.00;;;;;;;;;;5098264;28;20189;-78
2023/06/03 06:43:21;;;;;;;4.20;2.07;;;;;;;;;;5098627;28;20174;-79
2023/06/03 06:45:47;;;;;;;3.00;1.80;;;;;;;;;;5094840;28;20213;-78
2023/06/03 06:48:13;;;;;;;3.43;1.90;;;;;;;;;;5069006;28;20190;-79
2023/06/03 06:50:47;;;;;;;2.90;1.73;;;;;;;;;;5080175;28;20186;-78
2023/06/03 06:53:14;;;;;;;2.43;1.70;;;;;;;;;;5095533;28;20186;-82
2023/06/03 06:55:40;;;;;;;4.87;1.80;;;;;;;;;;5116371;28;20285;-82
2023/06/03 06:58:09;;;;;;;5.63;2.00;;;;;;;;;;5098750;28;20204;-82
2023/06/03 07:00:35;;;;;;;4.27;1.70;;;;;;;;;;5098462;28;20270;-82
2023/06/03 07:03:01;;;;;;;3.00;1.90;;;;;;;;;;5099161;28;20181;-82
2023/06/03 07:05:27;;;;;;;3.90;1.90;;;;;;;;;;5082169;28;20224;-82
2023/06/03 07:07:53;;;;;;;4.80;1.73;;;;;;;;;;5082002;28;20178;-82
2023/06/03 07:10:22;;;;;;;3.03;1.97;;;;;;;;;;5078379;28;20266;-78
2023/06/03 07:12:51;;;;;;;4.53;1.90;;;;;;;;;;5078121;28;20190;-78
2023/06/03 07:15:18;;;;;;;4.37;2.03;;;;;;;;;;5079952;28;20233;-78
2023/06/03 07:17:48;;;;;;;4.53;1.90;;;;;;;;;;5081691;28;20205;-79
2023/06/03 07:20:21;;;;;;;2.73;1.70;;;;;;;;;;5116355;28;20184;-78
2023/06/03 07:22:48;;;;;;;2.37;1.50;;;;;;;;;;5081613;28;20182;-79
2023/06/03 07:25:31;;;;;;;5.37;1.90;;;;;;;;;;5081380;28;20193;-81
2023/06/03 07:27:57;;;;;;;4.33;1.83;;;;;;;;;;5115516;28;20182;-80
2023/06/03 07:30:23;;;;;;;3.13;1.70;;;;;;;;;;5097301;28;20237;-80
2023/06/03 07:32:51;;;;;;;3.00;1.60;;;;;;;;;;5097599;28;20186;-81
2023/06/03 07:35:20;;;;;;;4.33;1.70;;;;;;;;;;5090790;28;20210;-81
2023/06/03 07:37:47;;;;;;;2.53;1.67;;;;;;;;;;5091627;28;20171;-81
2023/06/03 07:40:15;;;;;;;4.17;1.80;;;;;;;;;;5070028;28;20182;-81
2023/06/03 07:42:43;;;;;;;4.30;1.63;;;;;;;;;;5097592;28;20177;-78
2023/06/03 07:45:09;;;;;;;2.50;1.63;;;;;;;;;;5098671;28;20179;-79
2023/06/03 07:47:35;;;;;;;3.63;1.73;;;;;;;;;;5080909;28;20243;-79
2023/06/03 07:50:02;;;;;;;4.17;1.60;;;;;;;;;;5080877;28;20185;-78
2023/06/03 07:52:31;;;;;;;4.10;1.90;;;;;;;;;;5077660;28;20195;-78
2023/06/03 07:54:57;;;;;;;3.00;1.80;;;;;;;;;;5085656;28;20265;-78
2023/06/03 07:57:23;;;;;;;2.53;1.70;;;;;;;;;;5077262;28;20202;-78
2023/06/03 07:59:53;;;;;;;4.70;1.63;;;;;;;;;;5080615;28;20241;-89
2023/06/03 08:02:19;;;;;;;4.27;1.73;;;;;;;;;;5097553;28;20186;-89
2023/06/03 08:04:46;;;;;;;3.77;1.73;;;;;;;;;;5077128;28;20186;-88
2023/06/03 08:07:12;;;;;;;7.63;1.80;;;;;;;;;;5090178;28;20189;-87
2023/06/03 08:09:38;;;;;;;4.47;1.60;;;;;;;;;;5097878;28;20238;-89
2023/06/03 08:12:05;;;;;;;4.27;1.80;;;;;;;;;;5097949;28;20182;-89
2023/06/03 08:14:34;;;;;;;3.80;1.53;;;;;;;;;;5114070;28;20230;-88
2023/06/03 08:17:09;;;;;;;2.30;1.40;;;;;;;;;;5096938;28;20166;-82
2023/06/03 08:19:36;;;;;;;3.70;1.53;;;;;;;;;;5097121;28;20214;-83
2023/06/03 08:22:02;;;;;;;4.87;1.50;;;;;;;;;;5077196;28;20174;-83
2023/06/03 08:24:28;;;;;;;1.83;1.30;;;;;;;;;;5077873;28;20289;-83
2023/06/03 08:26:54;;;;;;;2.03;1.40;;;;;;;;;;5084900;28;20177;-82
2023/06/03 08:29:20;;;;;;;2.40;1.30;;;;;;;;;;5079736;28;20182;-82
2023/06/03 08:31:46;;;;;;;3.20;1.33;;;;;;;;;;5080060;28;20185;-82
2023/06/03 08:34:12;;;;;;;4.10;1.40;;;;;;;;;;5079920;28;20254;-82
2023/06/03 08:36:38;;;;;;;2.87;1.50;;;;;;;;;;5089964;28;20187;-82
2023/06/03 08:39:07;;;;;;;1.77;1.17;;;;;;;;;;5109207;28;20186;-83
2023/06/03 08:41:39;;;;;;;3.97;1.20;;;;;;;;;;5096181;28;20174;-82
2023/06/03 08:44:35;;;;;;;3.07;1.30;;;;;;;;;;5096253;28;20169;-83
2023/06/03 08:47:08;;;;;;;5.30;1.53;;;;;;;;;;5069202;28;20183;-83
2023/06/03 08:49:41;;;;;;;3.33;1.37;;;;;;;;;;5113771;28;20180;-83
2023/06/03 08:52:09;;;;;;;2.03;1.30;;;;;;;;;;5096620;28;20174;-82
2023/06/03 08:54:36;;;;;;;5.20;1.60;;;;;;;;;;5080343;28;20259;-82
2023/06/03 08:57:06;;;;;;;3.37;1.30;;;;;;;;;;5096850;28;20225;-83
2023/06/03 08:59:33;;;;;;;3.93;1.40;;;;;;;;;;5099183;28;20178;-83
2023/06/03 09:01:59;;;;;;;6.20;1.57;;;;;;;;;;5100925;28;20181;-82
2023/06/03 09:04:27;;;;;;;3.10;1.30;;;;;;;;;;5096871;28;20230;-83
2023/06/03 09:06:55;;;;;;;3.77;1.50;;;;;;;;;;5096640;28;20226;-80
2023/06/03 09:09:22;;;;;;;4.13;1.20;;;;;;;;;;5114636;28;20176;-81
2023/06/03 09:11:49;;;;;;;2.40;1.23;;;;;;;;;;5096346;28;20173;-80
2023/06/03 09:14:17;;;;;;;2.28;1.20;;;;;;;;;;5096292;28;20293;-81
2023/06/03 09:16:43;;;;;;;1.60;1.20;;;;;;;;;;5097224;28;20254;-81
2023/06/03 09:19:09;;;;;;;6.78;1.35;;;;;;;;;;5079797;28;20178;-80
2023/06/03 09:21:37;;;;;;;4.70;1.63;;;;;;;;;;5114685;28;20180;-79
2023/06/03 09:24:03;;;;;;;3.80;1.20;;;;;;;;;;5076850;28;20171;-80
2023/06/03 09:26:29;;;;;;;4.13;1.50;;;;;;;;;;5082401;28;20500;-80
2023/06/03 09:28:55;;;;;;;2.22;1.27;;;;;;;;;;5093295;28;20178;-79
2023/06/03 09:31:22;;;;;;;4.53;1.20;;;;;;;;;;5078540;28;20273;-80
2023/06/03 09:33:48;;;;;;;1.55;1.20;;;;;;;;;;5113907;28;20201;-80
2023/06/03 09:36:18;;;;;;;1.77;1.10;;;;;;;;;;5095517;28;20269;-79
2023/06/03 09:38:46;;;;;;;1.98;1.10;;;;;;;;;;5111027;28;20219;-90
2023/06/03 09:41:16;;;;;;;3.55;1.10;;;;;;;;;;5096481;28;20178;-91
2023/06/03 09:43:55;;;;;;;5.20;2.05;;;;;;;;;;5087541;28;20209;-90
2023/06/03 09:46:22;;;;;;;2.28;1.30;;;;;;;;;;5077265;28;20171;-90
2023/06/03 09:48:48;;;;;;;3.50;1.27;;;;;;;;;;5077619;28;20174;-91
2023/06/03 09:51:14;;;;;;;4.05;1.20;;;;;;;;;;5080838;28;20178;-90
2023/06/03 09:53:40;;;;;;;2.25;1.33;;;;;;;;;;5081298;28;20173;-91
2023/06/03 09:56:26;;;;;;;1.80;1.17;;;;;;;;;;5084393;28;20207;-83
2023/06/03 09:59:12;;;;;;;2.55;1.15;;;;;;;;;;5079734;28;20234;-84
2023/06/03 10:01:38;;;;;;;2.85;1.10;;;;;;;;;;5097646;28;20174;-83
2023/06/03 10:04:04;;;;;;;1.63;1.15;;;;;;;;;;5079495;28;20182;-83
2023/06/03 10:06:30;;;;;;;2.00;1.10;;;;;;;;;;5086400;28;20170;-83
2023/06/03 10:08:56;;;;;;;3.22;1.20;;;;;;;;;;5097480;28;20166;-83
2023/06/03 10:11:23;;;;;;;5.32;1.20;;;;;;;;;;5097508;28;20175;-83
2023/06/03 10:14:02;;;;;;;4.40;1.20;;;;;;;;;;5094655;28;20253;-79
2023/06/03 10:16:28;;;;;;;2.35;1.30;;;;;;;;;;5107527;28;20174;-80
2023/06/03 10:18:55;;;;;;;2.25;1.10;;;;;;;;;;5099629;28;20240;-79
2023/06/03 10:21:21;;;;;;;1.55;0.98;;;;;;;;;;5099448;28;20178;-79
2023/06/03 10:23:49;;;;;;;2.80;1.10;;;;;;;;;;5082854;28;20178;-80
2023/06/03 10:26:16;;;;;;;1.85;1.20;;;;;;;;;;5099404;28;20177;-80
2023/06/03 10:28:45;;;;;;;2.28;1.10;;;;;;;;;;5117509;28;20253;-79
2023/06/03 10:31:12;;;;;;;3.55;0.90;;;;;;;;;;5096128;28;20214;-79
2023/06/03 10:33:38;;;;;;;3.67;1.08;;;;;;;;;;5108770;28;20194;-79
2023/06/03 10:36:06;;;;;;;2.17;1.08;;;;;;;;;;5098822;28;20271;-79
2023/06/03 10:38:33;;;;;;;3.15;1.20;;;;;;;;;;5099014;28;20173;-79
2023/06/03 10:41:02;;;;;;;2.47;1.02;;;;;;;;;;5099531;28;20226;-80
2023/06/03 10:43:30;;;;;;;1.35;1.00;;;;;;;;;;5117002;28;20190;-80
2023/06/03 10:45:57;;;;;;;1.80;1.20;;;;;;;;;;5117359;28;20180;-82
2023/06/03 10:48:25;;;;;;;4.97;1.20;;;;;;;;;;5099382;28;20174;-82
2023/06/03 10:51:00;;;;;;;2.97;1.13;;;;;;;;;;5098936;28;20223;-82
2023/06/03 10:53:41;;;;;;;1.70;1.00;;;;;;;;;;5097407;28;20185;-82
2023/06/03 10:56:13;;;;;;;2.97;1.17;;;;;;;;;;5099245;28;20227;-82
2023/06/03 10:58:41;;;;;;;2.88;1.00;;;;;;;;;;5116821;28;20186;-82
2023/06/03 11:01:07;;;;;;;2.55;1.10;;;;;;;;;;5098367;28;20201;-83
2023/06/03 11:03:34;;;;;;;3.05;1.08;;;;;;;;;;5095713;28;20178;-80
2023/06/03 11:06:19;;;;;;;3.75;1.40;;;;;;;;;;5090256;28;20178;-80
2023/06/03 11:08:59;;;;;;;2.60;1.10;;;;;;;;;;5101375;28;20185;-80
2023/06/03 11:11:52;;;;;;;3.63;1.10;;;;;;;;;;5081945;28;20177;-81
2023/06/03 11:14:41;;;;;;;2.78;1.17;;;;;;;;;;5097240;28;20441;-80
2023/06/03 11:17:09;;;;;;;7.07;1.17;;;;;;;;;;5075890;28;20466;-80
2023/06/03 11:19:45;;;;;;;11.68;1.88;;;;;;;;;;5080958;28;20231;-84
2023/06/03 11:22:12;;;;;;;3.67;1.10;;;;;;;;;;5090136;28;20235;-83
2023/06/03 11:24:38;;;;;;;3.50;1.30;;;;;;;;;;5098770;28;20182;-83
2023/06/03 11:27:24;;;;;;;2.55;1.50;;;;;;;;;;5098577;28;20184;-83
2023/06/03 11:29:53;;;;;;;1.90;1.10;;;;;;;;;;5116167;28;20178;-83
2023/06/03 11:32:26;;;;;;;4.20;1.25;;;;;;;;;;5097992;28;20177;-83
2023/06/03 11:35:12;;;;;;;1.55;1.20;;;;;;;;;;5098254;28;20197;-91
2023/06/03 11:37:41;;;;;;;2.65;1.42;;;;;;;;;;5098228;28;20177;-92
2023/06/03 11:40:08;;;;;;;2.00;1.13;;;;;;;;;;5098171;28;20174;-91
2023/06/03 11:42:47;;;;;;;3.35;1.20;;;;;;;;;;5098520;28;20170;-91
2023/06/03 11:45:19;;;;;;;3.03;1.25;;;;;;;;;;5098467;28;20178;-91
2023/06/03 11:47:51;;;;;;;3.35;1.10;;;;;;;;;;5097715;28;20174;-92
2023/06/03 11:50:18;;;;;;;4.90;1.25;;;;;;;;;;5097963;28;20181;-92
2023/06/03 11:52:44;;;;;;;2.20;0.90;;;;;;;;;;5078780;28;20174;-83
2023/06/03 11:55:10;;;;;;;2.05;1.30;;;;;;;;;;5097577;28;20210;-84
2023/06/03 11:57:37;;;;;;;3.08;1.20;;;;;;;;;;5097955;28;20213;-84
2023/06/03 12:00:09;;;;;;;1.85;1.20;;;;;;;;;;5096965;28;20246;-84
2023/06/03 12:02:40;;;;;;;1.98;1.20;;;;;;;;;;5115673;28;20166;-84
2023/06/03 12:05:07;;;;;;;1.85;1.10;;;;;;;;;;5097179;28;20185;-84
2023/06/03 12:07:33;;;;;;;2.83;1.00;;;;;;;;;;5115535;28;20195;-84
2023/06/03 12:10:00;;;;;;;1.70;1.10;;;;;;;;;;5114667;28;20231;-84
2023/06/03 12:12:26;;;;;;;2.30;1.25;;;;;;;;;;5091977;28;20178;-84
2023/06/03 12:14:52;;;;;;;4.22;1.17;;;;;;;;;;5085192;28;20126;-83
2023/06/03 12:17:19;;;;;;;3.70;1.20;;;;;;;;;;5096413;28;20182;-83
2023/06/03 12:19:49;;;;;;;3.00;1.23;;;;;;;;;;5096694;28;20243;-84
2023/06/03 12:22:27;;;;;;;1.60;1.38;;;;;;;;;;5097368;28;20174;-84
2023/06/03 12:24:53;;;;;;;3.30;1.23;;;;;;;;;;5097559;28;20177;-91
2023/06/03 12:27:24;;;;;;;3.28;1.33;;;;;;;;;;5115241;28;20230;-91
2023/06/03 12:29:57;;;;;;;3.40;1.10;;;;;;;;;;5079270;28;20194;-91
2023/06/03 12:32:25;;;;;;;3.85;1.20;;;;;;;;;;5083781;28;20178;-92
2023/06/03 12:34:51;;;;;;;2.70;1.25;;;;;;;;;;5098213;28;20229;-91
2023/06/03 12:37:27;;;;;;;2.92;1.08;;;;;;;;;;5097480;28;20174;-91
2023/06/03 12:39:54;;;;;;;4.80;1.30;;;;;;;;;;5097202;28;20177;-91
2023/06/03 12:42:21;;;;;;;4.30;1.30;;;;;;;;;;5080386;28;20173;-84
2023/06/03 12:44:52;;;;;;;2.55;1.27;;;;;;;;;;5097557;28;20189;-84
2023/06/03 12:47:19;;;;;;;4.20;1.23;;;;;;;;;;5114889;28;20197;-83
2023/06/03 12:49:46;;;;;;;1.52;1.20;;;;;;;;;;5114988;28;20213;-84
2023/06/03 12:52:16;;;;;;;1.35;1.00;;;;;;;;;;5096949;28;20182;-84
2023/06/03 12:54:44;;;;;;;3.75;1.10;;;;;;;;;;5096688;28;20208;-84
2023/06/03 12:57:10;;;;;;;2.92;1.08;;;;;;;;;;5097418;28;20170;-84
2023/06/03 12:59:53;;;;;;;2.78;1.20;;;;;;;;;;5115370;28;20170;-92
2023/06/03 13:02:20;;;;;;;2.70;1.15;;;;;;;;;;5097055;28;20169;-92
2023/06/03 13:04:46;;;;;;;1.60;1.23;;;;;;;;;;5077236;28;20182;-91
2023/06/03 13:07:12;;;;;;;6.38;1.10;;;;;;;;;;5089437;28;20190;-91
2023/06/03 13:09:38;;;;;;;4.00;1.20;;;;;;;;;;5077522;28;20186;-91
2023/06/03 13:12:04;;;;;;;2.15;1.17;;;;;;;;;;5076729;28;20193;-91
2023/06/03 13:14:30;;;;;;;3.63;1.15;;;;;;;;;;5076351;28;20234;-91
2023/06/03 13:16:56;;;;;;;2.22;1.10;;;;;;;;;;5094334;28;20201;-84
2023/06/03 13:19:22;;;;;;;1.98;1.10;;;;;;;;;;5077750;28;20183;-83
2023/06/03 13:21:48;;;;;;;1.10;0.98;;;;;;;;;;5076097;28;20175;-84
2023/06/03 13:24:14;;;;;;;3.03;0.93;;;;;;;;;;5062337;28;20167;-84
2023/06/03 13:26:40;;;;;;;1.98;0.98;;;;;;;;;;5063568;28;20178;-84
2023/06/03 13:29:06;;;;;;;1.65;1.02;;;;;;;;;;5071429;28;20174;-84
2023/06/03 13:31:32;;;;;;;4.45;1.45;;;;;;;;;;5100220;28;20296;-84
2023/06/03 13:33:58;;;;;;;3.60;1.10;;;;;;;;;;5077055;28;20477;-85
2023/06/03 13:36:24;;;;;;;1.95;1.02;;;;;;;;;;5078040;28;20206;-84
2023/06/03 13:38:50;;;;;;;1.85;1.10;;;;;;;;;;5083429;28;20185;-84
2023/06/03 13:41:16;;;;;;;2.83;1.10;;;;;;;;;;5083393;28;20219;-83
2023/06/03 13:43:42;;;;;;;1.33;1.13;;;;;;;;;;5104416;22;20244;-86
2023/06/03 13:46:20;;;;;;;1.83;1.00;;;;;;;;;;5086984;28;20210;-87
2023/06/03 13:48:46;;;;;;;2.67;1.10;;;;;;;;;;5062793;28;20190;-86
2023/06/03 13:51:12;;;;;;;3.13;1.10;;;;;;;;;;5071328;28;20177;-86
2023/06/03 13:53:38;;;;;;;2.80;1.00;;;;;;;;;;5075770;28;20210;-87
2023/06/03 13:56:13;;;;;;;4.43;0.98;;;;;;;;;;5077894;28;20198;-87
2023/06/03 13:58:39;;;;;;;5.70;1.17;;;;;;;;;;5079723;28;20174;-87
2023/06/03 14:01:06;;;;;;;2.40;1.00;;;;;;;;;;5074383;28;20273;-87
2023/06/03 14:03:34;;;;;;;4.95;0.90;;;;;;;;;;5045216;28;20187;-86
2023/06/03 14:06:34;;;;;;;1.63;1.05;;;;;;;;;;5079423;28;20175;-88
2023/06/03 14:18:21;;;;;;;1.33;1.05;;;;;;;;;;5016753;28;20248;-88
2023/06/03 14:26:53;;;;;;;4.80;0.90;;;;;;;;;;5015646;28;20177;-88
2023/06/03 14:32:17;;;;;;;3.88;1.10;;;;;;;;;;5009961;28;20181;-89
2023/06/03 14:38:04;;;;;;;3.33;1.10;;;;;;;;;;5014922;28;20188;-87
2023/06/03 14:43:57;;;;;;;1.90;1.30;;;;;;;;;;4998345;28;20169;-87
2023/06/03 14:46:43;;;;;;;2.85;1.10;;;;;;;;;;4936915;29;20208;-87
2023/06/03 14:55:47;;;;;;;4.95;1.10;;;;;;;;;;5076618;28;20205;-88
2023/06/03 14:58:11;;;;;;;2.15;1.02;;;;;;;;;;5067087;28;20230;-86
2023/06/03 15:00:37;;;;;;;2.05;1.10;;;;;;;;;;5047551;28;20253;-86
2023/06/03 15:03:06;;;;;;;3.30;2.70;;;;;;;;;;5032799;28;20183;-89
2023/06/03 15:05:32;;;;;;;3.90;2.10;;;;;;;;;;5093117;28;20186;-87
2023/06/03 15:11:27;;;;;;;5.47;3.17;;;;;;;;;;5075474;28;20264;-88
2023/06/03 15:13:56;;;;;;;1.88;1.38;;;;;;;;;;5060165;28;20179;-87
2023/06/03 15:16:41;;;;;;;3.55;1.50;;;;;;;;;;5074636;28;20211;-88
2023/06/03 15:22:13;;;;;;;3.92;2.17;;;;;;;;;;5074929;28;20177;-87
2023/06/03 15:24:39;;;;;;;2.47;1.10;;;;;;;;;;5041304;28;20194;-88
2023/06/03 15:27:14;;;;;;;2.50;1.30;;;;;;;;;;5074355;28;20206;-88